Time;durP1;ratioP1;P1;durP2;ratioP2;P2;SDS_P1;SDS_P2;PMS_P1;PMS_P2;Temp;Humidity;BMP_temperature;BMP_pressure;BME280_temperature;BME280_humidity;BME280_pressure;Samples;Min_cycle;Max_cycle;Signal;HPM_P1;HPM_P2
2021/01/22 00:01:03;;;;;;;2.13;1.42;;;6.70;99.90;;;;;;4954003;29;20027;-84
2021/01/22 00:03:29;;;;;;;2.30;1.35;;;6.70;99.90;;;;;;4954004;29;20696;-84
2021/01/22 00:05:54;;;;;;;2.72;1.63;;;6.70;99.90;;;;;;4953917;29;20035;-84
2021/01/22 00:08:20;;;;;;;1.75;1.20;;;6.70;99.90;;;;;;4953935;29;20027;-84
2021/01/22 00:10:46;;;;;;;1.95;1.33;;;6.80;99.90;;;;;;4955393;28;20027;-83
2021/01/22 00:13:11;;;;;;;2.33;1.55;;;6.70;99.90;;;;;;4955156;28;20051;-83
2021/01/22 00:15:37;;;;;;;1.95;1.42;;;6.50;99.90;;;;;;4953873;29;20480;-83
2021/01/22 00:18:03;;;;;;;2.03;1.30;;;6.50;99.90;;;;;;4954996;28;20082;-83
2021/01/22 00:20:28;;;;;;;3.90;1.50;;;6.40;99.90;;;;;;4953820;29;20031;-83
2021/01/22 00:22:54;;;;;;;2.33;1.70;;;6.50;99.90;;;;;;4955097;28;20028;-83
2021/01/22 00:25:20;;;;;;;3.80;1.45;;;6.40;99.90;;;;;;4953763;29;20062;-83
2021/01/22 00:27:45;;;;;;;3.00;1.42;;;6.40;99.90;;;;;;4953739;29;20035;-83
2021/01/22 00:30:12;;;;;;;2.60;1.40;;;6.30;99.90;;;;;;4953760;29;20090;-83
2021/01/22 00:32:38;;;;;;;2.33;1.30;;;6.30;99.90;;;;;;4953721;29;20027;-83
2021/01/22 00:35:05;;;;;;;2.45;1.40;;;6.20;99.90;;;;;;4955076;28;20472;-83
2021/01/22 00:37:30;;;;;;;4.28;1.70;;;6.20;99.90;;;;;;4958334;28;20023;-83
2021/01/22 00:39:56;;;;;;;2.95;1.52;;;6.10;99.90;;;;;;4957198;29;20023;-83
2021/01/22 00:42:22;;;;;;;3.00;1.40;;;6.00;99.90;;;;;;4957161;29;20034;-83
2021/01/22 00:44:48;;;;;;;2.10;1.42;;;6.00;99.90;;;;;;4957149;29;20030;-83
2021/01/22 00:47:13;;;;;;;2.58;1.38;;;6.10;99.90;;;;;;4956910;29;20384;-83
2021/01/22 00:49:39;;;;;;;2.55;1.40;;;6.00;99.90;;;;;;4957006;29;20046;-83
2021/01/22 00:52:05;;;;;;;3.20;1.20;;;6.10;99.90;;;;;;4956998;29;20027;-83
2021/01/22 00:54:30;;;;;;;3.90;1.95;;;6.10;99.90;;;;;;4958489;28;20426;-83
2021/01/22 00:56:56;;;;;;;3.60;1.30;;;6.10;99.90;;;;;;4956828;29;20078;-83
2021/01/22 00:59:22;;;;;;;1.80;1.17;;;6.00;99.90;;;;;;4956857;29;20383;-82
2021/01/22 01:01:47;;;;;;;3.25;1.40;;;6.00;99.90;;;;;;4958072;28;20035;-83
2021/01/22 01:04:15;;;;;;;1.88;1.20;;;5.90;99.90;;;;;;4956797;29;20027;-83
2021/01/22 01:06:41;;;;;;;3.63;1.63;;;6.00;99.90;;;;;;4956702;29;20118;-83
2021/01/22 01:09:07;;;;;;;2.83;1.42;;;6.00;99.90;;;;;;4956700;29;20554;-83
2021/01/22 01:11:32;;;;;;;3.60;1.65;;;6.00;99.90;;;;;;4956929;29;20031;-83
2021/01/22 01:13:58;;;;;;;3.40;1.30;;;6.00;99.90;;;;;;4956635;29;20117;-83
2021/01/22 01:16:24;;;;;;;3.90;1.38;;;6.00;99.90;;;;;;4958028;28;20027;-83
2021/01/22 01:18:49;;;;;;;1.75;1.35;;;6.00;99.90;;;;;;4957791;28;20028;-83
2021/01/22 01:21:15;;;;;;;1.90;1.30;;;6.00;99.90;;;;;;4957726;28;20024;-83
2021/01/22 01:23:41;;;;;;;3.15;1.20;;;6.00;99.90;;;;;;4957674;28;20061;-83
2021/01/22 01:26:07;;;;;;;1.55;1.10;;;6.00;99.90;;;;;;4957637;28;20031;-83
2021/01/22 01:28:32;;;;;;;2.60;1.40;;;6.10;99.90;;;;;;4956334;29;20024;-83
2021/01/22 01:30:58;;;;;;;2.55;1.20;;;6.10;99.90;;;;;;4957570;28;20431;-82
2021/01/22 01:33:23;;;;;;;2.08;1.10;;;6.10;99.90;;;;;;4957494;28;20428;-83
2021/01/22 01:35:51;;;;;;;2.17;1.20;;;6.10;99.90;;;;;;4956138;28;20544;-83
2021/01/22 01:38:18;;;;;;;1.55;1.00;;;6.20;99.90;;;;;;4957382;28;20380;-83
2021/01/22 01:40:44;;;;;;;3.40;1.48;;;6.20;99.90;;;;;;4957438;28;20019;-83
2021/01/22 01:43:09;;;;;;;4.72;1.10;;;6.20;99.90;;;;;;4956415;29;20136;-83
2021/01/22 01:45:39;;;;;;;3.63;0.98;;;6.30;99.90;;;;;;4957153;28;20041;-83
2021/01/22 01:48:09;;;;;;;1.23;0.98;;;6.30;99.90;;;;;;4956925;28;20398;-82
2021/01/22 01:50:36;;;;;;;1.83;0.98;;;6.30;99.90;;;;;;4955991;29;20027;-83
2021/01/22 01:53:02;;;;;;;2.08;0.85;;;6.40;99.90;;;;;;4955934;29;20487;-81
2021/01/22 01:55:29;;;;;;;1.70;1.00;;;6.40;99.90;;;;;;4957089;28;20042;-82
2021/01/22 01:57:54;;;;;;;2.05;0.90;;;6.30;99.90;;;;;;4955700;29;20027;-83
2021/01/22 02:00:21;;;;;;;2.78;1.20;;;6.40;99.90;;;;;;4955745;29;20082;-82
2021/01/22 02:02:46;;;;;;;2.72;1.00;;;6.40;99.90;;;;;;4955726;29;20058;-82
2021/01/22 02:05:13;;;;;;;1.33;0.90;;;6.50;99.90;;;;;;4955692;29;20058;-82
2021/01/22 02:07:38;;;;;;;1.88;0.90;;;6.50;99.90;;;;;;4957406;28;20062;-82
2021/01/22 02:10:05;;;;;;;3.05;1.30;;;6.50;99.90;;;;;;4956793;28;20498;-82
2021/01/22 02:12:32;;;;;;;3.28;1.00;;;6.60;99.90;;;;;;4955508;29;20030;-82
2021/01/22 02:14:59;;;;;;;1.42;0.90;;;6.60;99.90;;;;;;4955473;29;20036;-82
2021/01/22 02:17:25;;;;;;;3.97;1.10;;;6.50;99.90;;;;;;4955388;29;20031;-80
2021/01/22 02:20:16;;;;;;;5.28;1.25;;;6.50;99.90;;;;;;4955368;29;20026;-80
2021/01/22 02:22:42;;;;;;;1.65;0.90;;;6.60;99.90;;;;;;4955294;29;20475;-80
2021/01/22 02:25:11;;;;;;;1.25;0.98;;;6.60;99.90;;;;;;4955268;29;20110;-78
2021/01/22 02:27:37;;;;;;;1.67;1.17;;;6.50;99.90;;;;;;4956497;28;20027;-80
2021/01/22 02:30:07;;;;;;;3.70;1.02;;;6.50;99.90;;;;;;4955346;29;20039;-80
2021/01/22 02:32:35;;;;;;;6.95;1.30;;;6.60;99.90;;;;;;4955125;29;20085;-79
2021/01/22 02:35:08;;;;;;;2.53;1.50;;;6.50;99.90;;;;;;4956560;28;20472;-79
2021/01/22 02:37:35;;;;;;;2.03;0.93;;;6.40;99.90;;;;;;4955179;28;20098;-80
2021/01/22 02:40:05;;;;;;;1.92;1.10;;;6.40;99.90;;;;;;4954949;29;20026;-80
2021/01/22 02:42:32;;;;;;;3.17;1.25;;;6.50;99.90;;;;;;4955183;29;20046;-80
2021/01/22 02:44:57;;;;;;;3.00;1.33;;;6.50;99.90;;;;;;4956230;28;20027;-80
2021/01/22 02:47:24;;;;;;;4.63;0.98;;;6.40;99.90;;;;;;4954745;29;20090;-80
2021/01/22 02:49:51;;;;;;;4.05;1.17;;;6.30;99.90;;;;;;4956132;28;20487;-79
2021/01/22 02:52:17;;;;;;;4.60;1.50;;;6.40;99.90;;;;;;4954774;29;20037;-79
2021/01/22 02:54:50;;;;;;;2.50;1.10;;;6.40;99.90;;;;;;4954791;29;20376;-80
2021/01/22 02:57:36;;;;;;;4.40;1.10;;;6.40;99.90;;;;;;4954697;29;20027;-80
2021/01/22 03:00:12;;;;;;;5.65;1.52;;;6.40;99.90;;;;;;4953868;28;20027;-79
2021/01/22 03:02:44;;;;;;;3.95;1.00;;;6.30;99.90;;;;;;4954737;29;20027;-80
2021/01/22 03:05:14;;;;;;;5.05;1.30;;;6.30;99.90;;;;;;4954636;29;20023;-80
2021/01/22 03:07:51;;;;;;;5.00;1.20;;;6.20;99.90;;;;;;4954545;29;20031;-80
2021/01/22 03:10:20;;;;;;;4.25;1.08;;;6.20;99.90;;;;;;4954584;29;20031;-79
2021/01/22 03:12:51;;;;;;;5.15;1.13;;;6.20;99.90;;;;;;4954515;29;20395;-80
2021/01/22 03:15:22;;;;;;;6.45;1.00;;;6.20;99.90;;;;;;4954498;29;20448;-80
2021/01/22 03:17:49;;;;;;;3.35;1.23;;;6.20;99.90;;;;;;4954387;29;20114;-80
2021/01/22 03:20:20;;;;;;;4.95;1.17;;;6.40;99.90;;;;;;4954444;29;20038;-79
2021/01/22 03:22:46;;;;;;;3.47;1.10;;;6.40;99.90;;;;;;4954368;29;20118;-79
2021/01/22 03:25:13;;;;;;;6.80;1.58;;;6.40;99.90;;;;;;4954331;29;20467;-80
2021/01/22 03:27:39;;;;;;;12.18;1.63;;;6.40;99.90;;;;;;4954312;29;20031;-79
2021/01/22 03:30:06;;;;;;;9.32;1.20;;;6.20;99.90;;;;;;4954270;29;20023;-79
2021/01/22 03:32:32;;;;;;;6.93;1.77;;;6.30;99.90;;;;;;4954381;29;20054;-79
2021/01/22 03:34:58;;;;;;;8.35;1.35;;;6.30;99.90;;;;;;4955625;28;20031;-79
2021/01/22 03:37:24;;;;;;;4.63;1.55;;;6.30;99.90;;;;;;4953938;28;20170;-80
2021/01/22 03:39:49;;;;;;;8.35;1.48;;;6.40;99.90;;;;;;4955676;28;20031;-80
2021/01/22 03:42:15;;;;;;;4.05;1.05;;;6.40;99.90;;;;;;4954181;29;20039;-80
2021/01/22 03:44:41;;;;;;;9.23;1.40;;;6.30;99.90;;;;;;4954159;29;20071;-80
2021/01/22 03:47:07;;;;;;;7.38;1.48;;;6.30;99.90;;;;;;4953832;29;20054;-80
2021/01/22 03:49:34;;;;;;;4.72;1.35;;;6.20;99.90;;;;;;4954079;29;20395;-79
2021/01/22 03:52:02;;;;;;;4.60;1.38;;;6.20;99.90;;;;;;4955324;28;20123;-80
2021/01/22 03:54:28;;;;;;;4.03;1.30;;;6.20;99.90;;;;;;4954051;29;20023;-79
2021/01/22 03:56:54;;;;;;;4.13;1.30;;;6.30;99.90;;;;;;4953964;29;20041;-79
2021/01/22 03:59:20;;;;;;;3.42;1.17;;;6.30;99.90;;;;;;4954011;29;20059;-80
2021/01/22 04:01:46;;;;;;;4.13;1.30;;;6.20;99.90;;;;;;4955275;28;20078;-79
2021/01/22 04:04:12;;;;;;;2.75;1.02;;;6.20;99.90;;;;;;4955265;28;20058;-79
2021/01/22 04:06:37;;;;;;;4.53;1.40;;;6.10;99.90;;;;;;4953956;29;20028;-79
2021/01/22 04:09:06;;;;;;;5.80;1.60;;;6.10;99.90;;;;;;4955174;28;20042;-79
2021/01/22 04:11:32;;;;;;;7.95;2.05;;;6.10;99.90;;;;;;4956336;28;20023;-79
2021/01/22 04:13:58;;;;;;;9.73;2.20;;;6.10;99.90;;;;;;4958922;28;20034;-79
2021/01/22 04:16:24;;;;;;;5.32;1.65;;;6.10;99.90;;;;;;4957563;29;20023;-79
2021/01/22 04:18:49;;;;;;;4.38;1.40;;;6.10;99.90;;;;;;4957568;29;20031;-79
2021/01/22 04:21:15;;;;;;;4.25;1.13;;;6.20;99.90;;;;;;4957584;29;20046;-79
2021/01/22 04:23:41;;;;;;;4.07;1.40;;;6.20;99.90;;;;;;4957508;29;20031;-79
2021/01/22 04:26:07;;;;;;;7.20;1.67;;;6.20;99.90;;;;;;4957483;29;20029;-79
2021/01/22 04:28:32;;;;;;;3.05;1.33;;;6.20;99.90;;;;;;4957705;29;20031;-79
2021/01/22 04:30:58;;;;;;;3.00;1.40;;;6.20;99.90;;;;;;4958925;28;20027;-79
2021/01/22 04:33:24;;;;;;;3.38;1.48;;;6.20;99.90;;;;;;4957339;29;20119;-79
2021/01/22 04:35:49;;;;;;;8.38;1.58;;;6.30;99.90;;;;;;4957241;28;20062;-80
2021/01/22 04:38:15;;;;;;;6.38;1.35;;;6.20;99.90;;;;;;4957230;29;20027;-79
2021/01/22 04:40:41;;;;;;;5.03;1.60;;;6.30;99.90;;;;;;4957255;29;20027;-79
2021/01/22 04:43:08;;;;;;;3.75;1.48;;;6.30;99.90;;;;;;4958982;28;20030;-79
2021/01/22 04:45:33;;;;;;;5.03;1.52;;;6.20;99.90;;;;;;4957404;29;20024;-79
2021/01/22 04:48:00;;;;;;;3.55;1.50;;;6.30;99.90;;;;;;4958190;28;20070;-79
2021/01/22 04:50:26;;;;;;;6.53;1.38;;;6.40;99.90;;;;;;4958307;28;20119;-79
2021/01/22 04:52:56;;;;;;;3.88;1.58;;;6.40;99.90;;;;;;4959075;28;20403;-79
2021/01/22 04:55:26;;;;;;;3.72;1.42;;;6.40;99.90;;;;;;4957240;29;20123;-79
2021/01/22 04:57:55;;;;;;;3.95;1.40;;;6.30;99.90;;;;;;4956900;29;20403;-79
2021/01/22 05:00:25;;;;;;;2.95;1.27;;;6.30;99.90;;;;;;4956871;29;20024;-79
2021/01/22 05:02:53;;;;;;;3.80;1.27;;;6.20;99.90;;;;;;4941401;29;20383;-80
2021/01/22 05:05:20;;;;;;;3.78;1.17;;;6.30;99.90;;;;;;4958047;28;20028;-78
2021/01/22 05:07:46;;;;;;;5.03;1.20;;;6.20;99.90;;;;;;4956737;29;20039;-79
2021/01/22 05:10:11;;;;;;;5.50;1.10;;;6.30;99.90;;;;;;4956646;29;20073;-79
2021/01/22 05:12:38;;;;;;;4.35;1.55;;;6.30;99.90;;;;;;4957946;28;20102;-79
2021/01/22 05:15:33;;;;;;;3.47;1.10;;;6.30;99.90;;;;;;4956648;29;20035;-79
2021/01/22 05:18:03;;;;;;;4.30;1.00;;;6.30;99.90;;;;;;4940463;29;20042;-80
2021/01/22 05:20:41;;;;;;;3.92;1.15;;;6.40;99.90;;;;;;4956533;29;20031;-79
2021/01/22 05:23:09;;;;;;;6.15;1.40;;;6.40;99.90;;;;;;4955473;28;20023;-79
2021/01/22 05:26:06;;;;;;;2.90;1.00;;;6.40;99.90;;;;;;4956423;29;20110;-79
2021/01/22 05:28:43;;;;;;;1.50;1.02;;;6.30;99.90;;;;;;4957944;28;20026;-80
2021/01/22 05:31:13;;;;;;;2.03;1.02;;;6.40;99.90;;;;;;4956419;29;20030;-80
2021/01/22 05:33:59;;;;;;;5.53;1.13;;;6.40;99.90;;;;;;4956268;29;20611;-79
2021/01/22 05:36:27;;;;;;;2.50;0.80;;;6.40;99.90;;;;;;4957633;28;20027;-78
2021/01/22 05:38:55;;;;;;;1.35;1.00;;;6.40;99.90;;;;;;4957434;28;20020;-80
2021/01/22 05:41:21;;;;;;;4.97;0.85;;;6.40;99.90;;;;;;4956085;29;20403;-79
2021/01/22 05:43:49;;;;;;;2.65;1.00;;;6.40;99.90;;;;;;4957314;28;20031;-79
2021/01/22 05:46:20;;;;;;;3.95;1.10;;;6.40;99.90;;;;;;4955851;29;20133;-79
2021/01/22 05:48:46;;;;;;;4.25;1.00;;;6.40;99.90;;;;;;4955971;29;20029;-79
2021/01/22 05:51:12;;;;;;;3.75;1.13;;;6.30;99.90;;;;;;4955944;29;20020;-79
2021/01/22 05:53:46;;;;;;;2.97;0.70;;;6.30;99.90;;;;;;4955895;29;20023;-79
2021/01/22 05:56:17;;;;;;;1.95;0.90;;;6.30;99.90;;;;;;4955853;29;20031;-79
2021/01/22 05:58:47;;;;;;;2.75;1.00;;;6.30;99.90;;;;;;4955868;29;20365;-81
2021/01/22 06:01:15;;;;;;;3.05;0.63;;;6.30;99.90;;;;;;4955796;29;20024;-79
2021/01/22 06:03:45;;;;;;;3.45;1.02;;;6.30;99.90;;;;;;4956940;28;20023;-79
2021/01/22 06:06:11;;;;;;;4.50;0.90;;;6.30;99.90;;;;;;4956895;28;20079;-79
2021/01/22 06:08:47;;;;;;;2.92;1.02;;;6.30;99.90;;;;;;4957152;28;20027;-79
2021/01/22 06:11:15;;;;;;;2.58;0.70;;;6.20;99.90;;;;;;4956830;28;20364;-79
2021/01/22 06:13:45;;;;;;;3.88;1.20;;;6.30;99.90;;;;;;4957057;28;20031;-79
2021/01/22 06:16:18;;;;;;;4.20;1.20;;;6.30;99.90;;;;;;4955381;29;20034;-79
2021/01/22 06:19:00;;;;;;;2.92;1.02;;;6.30;99.90;;;;;;4956707;28;20027;-81
2021/01/22 06:21:38;;;;;;;2.83;1.13;;;6.30;99.90;;;;;;4956686;28;20381;-79
2021/01/22 06:24:06;;;;;;;2.05;0.98;;;6.30;99.90;;;;;;4955333;29;20110;-80
2021/01/22 06:26:37;;;;;;;1.50;0.80;;;6.30;99.90;;;;;;4955809;29;20035;-80
2021/01/22 06:29:05;;;;;;;2.00;0.70;;;6.30;99.90;;;;;;4955274;29;20032;-80
2021/01/22 06:31:32;;;;;;;1.50;0.70;;;6.30;99.90;;;;;;4955341;29;20027;-79
2021/01/22 06:33:59;;;;;;;3.28;0.80;;;6.30;99.90;;;;;;4954934;28;20138;-80
2021/01/22 06:36:25;;;;;;;1.60;0.90;;;6.20;99.90;;;;;;4954923;28;20118;-79
2021/01/22 06:38:52;;;;;;;1.10;0.98;;;6.20;99.90;;;;;;4956333;28;20047;-80
2021/01/22 06:41:23;;;;;;;1.63;0.90;;;6.20;99.90;;;;;;4955009;29;20027;-79
2021/01/22 06:43:51;;;;;;;2.10;0.85;;;6.20;99.90;;;;;;4955287;29;20538;-80
2021/01/22 06:46:18;;;;;;;1.85;0.95;;;6.10;99.90;;;;;;4954743;29;20114;-80
2021/01/22 06:49:00;;;;;;;3.03;1.02;;;6.00;99.90;;;;;;4956156;28;20023;-80
2021/01/22 06:51:30;;;;;;;2.55;0.85;;;6.00;99.90;;;;;;4954882;29;20027;-80
2021/01/22 06:54:05;;;;;;;3.72;1.00;;;6.00;99.90;;;;;;4954838;29;20024;-80
2021/01/22 06:56:32;;;;;;;2.92;0.90;;;6.00;99.90;;;;;;4954707;29;20037;-79
2021/01/22 06:59:20;;;;;;;2.58;0.90;;;6.00;99.90;;;;;;4954709;29;20023;-80
2021/01/22 07:01:46;;;;;;;1.92;0.80;;;6.00;99.90;;;;;;4954668;29;20098;-79
2021/01/22 07:04:31;;;;;;;2.08;0.90;;;6.00;99.90;;;;;;4955844;28;20106;-80
2021/01/22 07:07:01;;;;;;;2.10;0.77;;;6.00;99.90;;;;;;4954590;29;20034;-80
2021/01/22 07:09:46;;;;;;;1.63;0.95;;;6.00;99.90;;;;;;4954533;29;20023;-80
2021/01/22 07:12:14;;;;;;;3.40;1.08;;;6.00;99.90;;;;;;4955769;28;20027;-80
2021/01/22 07:14:45;;;;;;;1.45;0.95;;;6.10;99.90;;;;;;4955747;28;20479;-80
2021/01/22 07:17:24;;;;;;;1.65;0.80;;;6.00;99.90;;;;;;4954426;29;20035;-80
2021/01/22 07:19:57;;;;;;;0.90;0.70;;;6.10;99.90;;;;;;4938545;29;20035;-80
2021/01/22 07:22:23;;;;;;;1.75;0.90;;;6.10;99.90;;;;;;4954419;29;20490;-80
2021/01/22 07:24:51;;;;;;;3.08;0.80;;;6.20;99.90;;;;;;4954360;29;20106;-80
2021/01/22 07:27:17;;;;;;;3.00;0.80;;;6.20;99.90;;;;;;4954345;29;20031;-80
2021/01/22 07:30:02;;;;;;;7.68;1.20;;;6.30;99.90;;;;;;4954307;29;20475;-80
2021/01/22 07:32:28;;;;;;;2.42;1.00;;;6.30;99.90;;;;;;4954094;29;20035;-80
2021/01/22 07:34:54;;;;;;;3.45;1.00;;;6.30;99.90;;;;;;4954157;29;20094;-80
2021/01/22 07:37:25;;;;;;;6.30;1.23;;;6.50;99.90;;;;;;4953932;28;20032;-80
2021/01/22 07:39:53;;;;;;;2.67;1.05;;;6.50;99.90;;;;;;4954221;29;20030;-80
2021/01/22 07:42:26;;;;;;;4.35;1.10;;;6.70;99.90;;;;;;4954128;29;20062;-80
2021/01/22 07:44:53;;;;;;;1.65;0.70;;;6.80;99.90;;;;;;4954965;28;20030;-80
2021/01/22 07:47:26;;;;;;;2.85;1.00;;;6.80;99.90;;;;;;4960002;28;20090;-80
2021/01/22 07:49:53;;;;;;;3.85;1.60;;;6.90;99.90;;;;;;4960803;29;20538;-79
2021/01/22 07:52:19;;;;;;;2.58;1.10;;;7.00;99.90;;;;;;4960483;29;20031;-80
2021/01/22 07:54:45;;;;;;;3.75;1.05;;;7.10;99.90;;;;;;4960390;28;20114;-80
2021/01/22 07:57:25;;;;;;;2.35;1.20;;;7.10;99.90;;;;;;4960292;28;20503;-80
2021/01/22 07:59:52;;;;;;;4.82;0.95;;;7.00;99.90;;;;;;4961944;28;20061;-81
2021/01/22 08:02:20;;;;;;;2.75;0.80;;;7.10;99.90;;;;;;4960405;28;20027;-81
2021/01/22 08:04:54;;;;;;;3.35;0.90;;;7.10;99.90;;;;;;4960397;29;20491;-81
2021/01/22 08:07:34;;;;;;;7.07;0.70;;;7.20;99.90;;;;;;4960319;29;20475;-80
2021/01/22 08:10:00;;;;;;;4.15;1.15;;;7.30;99.90;;;;;;4960312;29;20166;-81
2021/01/22 08:12:26;;;;;;;5.28;1.52;;;7.40;99.90;;;;;;4960303;29;20028;-80
2021/01/22 08:14:52;;;;;;;4.10;1.10;;;7.50;99.90;;;;;;4960233;28;20054;-80
2021/01/22 08:17:18;;;;;;;2.63;1.10;;;7.60;99.90;;;;;;4961283;29;20055;-80
2021/01/22 08:19:45;;;;;;;1.38;0.75;;;7.50;99.90;;;;;;4960216;28;20023;-80
2021/01/22 08:22:15;;;;;;;0.93;0.70;;;7.30;99.90;;;;;;4961467;28;20034;-80
2021/01/22 08:24:51;;;;;;;1.80;0.68;;;7.20;99.90;;;;;;4960194;29;20039;-80
2021/01/22 08:27:21;;;;;;;0.77;0.70;;;7.20;99.90;;;;;;4944444;29;20035;-80
2021/01/22 08:29:47;;;;;;;1.45;0.80;;;7.10;99.90;;;;;;4960173;29;20031;-80
2021/01/22 08:32:16;;;;;;;0.93;0.63;;;7.10;99.90;;;;;;4960082;28;20035;-80
2021/01/22 08:34:42;;;;;;;4.38;0.77;;;7.20;99.90;;;;;;4960064;28;20038;-80
2021/01/22 08:37:08;;;;;;;1.55;0.80;;;7.30;99.90;;;;;;4959921;28;20038;-80
2021/01/22 08:39:55;;;;;;;3.40;1.10;;;7.30;99.90;;;;;;4944288;29;20039;-80
2021/01/22 08:42:22;;;;;;;1.77;0.70;;;7.50;99.90;;;;;;4960048;28;20053;-79
2021/01/22 08:44:52;;;;;;;2.35;0.80;;;7.60;99.90;;;;;;4960011;28;20483;-80
2021/01/22 08:47:18;;;;;;;2.83;0.90;;;7.70;99.90;;;;;;4959833;29;20443;-80
2021/01/22 08:49:56;;;;;;;2.38;0.80;;;7.90;99.90;;;;;;4959960;29;20438;-80
2021/01/22 08:52:22;;;;;;;1.75;0.88;;;8.00;99.90;;;;;;4961095;28;20063;-79
2021/01/22 08:54:58;;;;;;;3.75;0.95;;;8.20;99.90;;;;;;4959866;29;20034;-81
2021/01/22 08:58:04;;;;;;;1.58;0.90;;;8.20;99.90;;;;;;4958913;28;20031;-83
2021/01/22 09:00:30;;;;;;;1.85;0.80;;;8.00;99.90;;;;;;4956900;29;20387;-83
2021/01/22 09:02:56;;;;;;;1.63;0.80;;;8.00;99.90;;;;;;4956825;29;20028;-83
2021/01/22 09:05:23;;;;;;;3.50;0.80;;;7.90;99.90;;;;;;4956787;29;20025;-83
2021/01/22 09:08:06;;;;;;;1.20;0.90;;;7.90;99.90;;;;;;4956755;29;20023;-83
2021/01/22 09:10:32;;;;;;;3.35;1.00;;;7.90;99.90;;;;;;4956716;29;20118;-84
2021/01/22 09:13:11;;;;;;;2.35;0.90;;;8.00;99.90;;;;;;4956642;29;20027;-84
2021/01/22 09:15:37;;;;;;;3.05;0.90;;;8.20;99.90;;;;;;4957896;28;20106;-83
2021/01/22 09:18:15;;;;;;;3.97;0.88;;;8.30;99.90;;;;;;4956450;29;20031;-84
2021/01/22 09:20:43;;;;;;;2.80;0.75;;;8.70;99.90;;;;;;4956565;29;20027;-84
2021/01/22 09:23:09;;;;;;;2.72;0.90;;;8.90;99.90;;;;;;4956444;29;20023;-83
2021/01/22 09:25:34;;;;;;;1.52;0.60;;;9.00;99.90;;;;;;4958258;28;20030;-83
2021/01/22 09:28:00;;;;;;;1.63;0.80;;;8.80;99.90;;;;;;4956366;29;20438;-83
2021/01/22 09:30:27;;;;;;;3.65;1.38;;;8.80;99.90;;;;;;4956342;29;20027;-83
2021/01/22 09:32:58;;;;;;;4.22;0.90;;;9.00;99.90;;;;;;4957508;28;20446;-83
2021/01/22 09:35:25;;;;;;;3.83;1.50;;;9.00;99.90;;;;;;4957544;28;20031;-83
2021/01/22 09:37:51;;;;;;;1.33;0.60;;;9.20;99.90;;;;;;4956093;28;20028;-83
2021/01/22 09:40:18;;;;;;;1.35;0.88;;;9.20;99.90;;;;;;4957465;28;20023;-82
2021/01/22 09:42:44;;;;;;;3.33;0.80;;;9.40;99.90;;;;;;4956418;29;20476;-82
2021/01/22 09:45:12;;;;;;;3.17;1.48;;;9.70;99.90;;;;;;4956094;29;20035;-81
2021/01/22 09:47:38;;;;;;;2.78;0.70;;;9.80;99.90;;;;;;4955833;29;20051;-81
2021/01/22 09:50:06;;;;;;;3.40;1.30;;;9.70;99.90;;;;;;4957220;28;20023;-82
2021/01/22 09:52:33;;;;;;;4.45;1.00;;;9.80;99.90;;;;;;4955882;29;20102;-81
2021/01/22 09:54:59;;;;;;;5.38;2.00;;;9.60;99.90;;;;;;4955871;29;20035;-82
2021/01/22 09:57:25;;;;;;;6.50;2.50;;;9.70;99.90;;;;;;4955720;29;20039;-82
2021/01/22 09:59:50;;;;;;;4.63;1.15;;;9.60;99.90;;;;;;4955821;29;20126;-81
2021/01/22 10:02:16;;;;;;;11.70;3.47;;;9.60;99.90;;;;;;4955690;29;20023;-81
2021/01/22 10:04:42;;;;;;;2.95;0.70;;;9.50;99.90;;;;;;4957023;28;20023;-82
2021/01/22 10:07:07;;;;;;;3.45;0.90;;;9.50;99.90;;;;;;4955686;29;20023;-81
2021/01/22 10:09:33;;;;;;;4.35;1.35;;;9.50;99.90;;;;;;4955071;28;20023;-76
2021/01/22 10:11:59;;;;;;;12.77;5.43;;;9.50;99.90;;;;;;4957033;28;20027;-77
2021/01/22 10:14:25;;;;;;;2.15;1.00;;;9.50;99.90;;;;;;4956798;28;20051;-76
2021/01/22 10:16:51;;;;;;;4.72;2.33;;;9.60;99.90;;;;;;4955399;29;20035;-77
2021/01/22 10:19:17;;;;;;;2.95;0.70;;;9.50;99.90;;;;;;4956701;28;20561;-77
2021/01/22 10:21:43;;;;;;;2.72;1.52;;;9.50;99.90;;;;;;4955442;29;20114;-76
2021/01/22 10:24:10;;;;;;;3.17;1.35;;;9.50;99.90;;;;;;4955372;29;20070;-77
2021/01/22 10:26:36;;;;;;;2.40;1.00;;;9.80;99.90;;;;;;4956913;28;20046;-76
2021/01/22 10:29:02;;;;;;;3.33;1.25;;;9.90;99.90;;;;;;4956807;28;20027;-76
2021/01/22 10:31:27;;;;;;;2.65;0.90;;;9.90;99.90;;;;;;4955253;29;20162;-76
2021/01/22 10:33:53;;;;;;;2.13;0.98;;;10.10;99.90;;;;;;4955169;29;20114;-77
2021/01/22 10:36:20;;;;;;;5.13;0.95;;;10.30;99.90;;;;;;4956216;28;20027;-77
2021/01/22 10:38:46;;;;;;;1.95;0.70;;;10.70;99.90;;;;;;4956334;28;20030;-76
2021/01/22 10:41:12;;;;;;;2.63;1.00;;;11.00;99.90;;;;;;4956309;28;20027;-77
2021/01/22 10:43:38;;;;;;;2.35;0.90;;;10.70;99.90;;;;;;4956512;28;20070;-77
2021/01/22 10:46:04;;;;;;;2.78;0.93;;;10.80;99.90;;;;;;4954986;29;20050;-77
2021/01/22 10:48:29;;;;;;;3.03;0.90;;;11.00;99.90;;;;;;4954750;29;20055;-76
2021/01/22 10:50:55;;;;;;;3.55;0.90;;;11.20;99.90;;;;;;4954825;29;20023;-77
2021/01/22 10:53:22;;;;;;;3.03;1.02;;;11.60;99.90;;;;;;4956364;28;20023;-77
2021/01/22 10:55:48;;;;;;;4.75;1.33;;;11.60;99.90;;;;;;4956596;28;20525;-77
2021/01/22 10:58:14;;;;;;;4.43;0.90;;;12.00;99.90;;;;;;4955920;28;20035;-77
2021/01/22 11:00:39;;;;;;;2.58;0.75;;;12.10;99.90;;;;;;4954763;29;20475;-77
2021/01/22 11:03:05;;;;;;;1.45;0.70;;;12.20;99.90;;;;;;4954673;29;20383;-77
2021/01/22 11:05:32;;;;;;;2.70;1.00;;;12.40;99.90;;;;;;4954653;29;20027;-77
2021/01/22 11:07:58;;;;;;;1.52;0.73;;;12.00;99.90;;;;;;4954474;29;20031;-76
2021/01/22 11:10:26;;;;;;;2.35;0.77;;;12.50;99.90;;;;;;4956038;28;20042;-77
2021/01/22 11:12:53;;;;;;;2.65;0.80;;;12.60;99.90;;;;;;4954611;29;20501;-77
2021/01/22 11:15:19;;;;;;;4.15;1.13;;;12.90;99.90;;;;;;4954576;29;20031;-76
2021/01/22 11:17:44;;;;;;;1.70;0.60;;;13.20;99.90;;;;;;4956160;28;20030;-76
2021/01/22 11:20:11;;;;;;;2.28;0.93;;;13.20;99.90;;;;;;4955048;28;20027;-78
2021/01/22 11:22:37;;;;;;;3.05;1.00;;;14.10;99.90;;;;;;4954581;29;20122;-77
2021/01/22 11:25:04;;;;;;;2.03;0.70;;;14.20;99.90;;;;;;4954471;29;20567;-77
2021/01/22 11:27:29;;;;;;;3.25;0.60;;;14.60;99.90;;;;;;4955967;28;20039;-77
2021/01/22 11:29:55;;;;;;;1.45;0.70;;;14.40;99.90;;;;;;4956142;28;20078;-77
2021/01/22 11:32:21;;;;;;;2.08;0.88;;;14.20;99.90;;;;;;4954330;29;20031;-77
2021/01/22 11:34:47;;;;;;;1.98;0.85;;;14.20;99.90;;;;;;4955505;28;20098;-77
2021/01/22 11:37:13;;;;;;;1.75;0.80;;;13.30;99.90;;;;;;4954072;28;20058;-77
2021/01/22 11:39:38;;;;;;;1.30;0.75;;;12.70;99.90;;;;;;4956036;28;20023;-77
2021/01/22 11:42:05;;;;;;;1.40;0.70;;;12.60;99.90;;;;;;4954200;29;20078;-77
2021/01/22 11:44:31;;;;;;;1.42;0.63;;;12.80;99.90;;;;;;4954184;29;20019;-77
2021/01/22 11:46:57;;;;;;;3.15;0.60;;;12.40;99.90;;;;;;4955256;28;20047;-77
2021/01/22 11:49:23;;;;;;;1.98;0.90;;;12.00;99.90;;;;;;4954111;29;20027;-76
2021/01/22 11:51:49;;;;;;;3.78;0.75;;;11.70;99.90;;;;;;4954112;29;20031;-77
2021/01/22 11:54:14;;;;;;;3.85;0.90;;;11.60;99.90;;;;;;4954068;29;20023;-77
2021/01/22 11:56:40;;;;;;;1.77;0.80;;;11.40;99.90;;;;;;4955553;28;20054;-77
2021/01/22 11:59:08;;;;;;;3.35;0.65;;;11.10;99.90;;;;;;4954344;29;20114;-77
2021/01/22 12:01:34;;;;;;;2.60;0.90;;;11.00;99.90;;;;;;4953999;29;20114;-77
2021/01/22 12:04:00;;;;;;;1.58;0.70;;;10.90;99.90;;;;;;4955264;28;20082;-76
2021/01/22 12:06:26;;;;;;;3.20;0.70;;;10.80;99.90;;;;;;4954007;29;20027;-76
2021/01/22 12:08:52;;;;;;;1.95;0.80;;;10.90;99.90;;;;;;4953944;29;20020;-77
2021/01/22 12:11:18;;;;;;;2.17;0.98;;;10.90;99.90;;;;;;4955197;28;20027;-76
2021/01/22 12:13:43;;;;;;;2.15;0.73;;;11.10;99.90;;;;;;4953805;29;20023;-76
2021/01/22 12:16:09;;;;;;;2.25;0.95;;;11.00;99.90;;;;;;4955676;28;20054;-77
2021/01/22 12:18:35;;;;;;;3.33;0.90;;;11.20;99.90;;;;;;4955106;28;20031;-77
2021/01/22 12:21:01;;;;;;;2.67;0.95;;;11.00;99.90;;;;;;4953843;29;20454;-77
2021/01/22 12:23:26;;;;;;;3.08;1.35;;;10.90;99.90;;;;;;4955084;28;20054;-77
2021/01/22 12:25:52;;;;;;;1.63;0.90;;;11.10;99.90;;;;;;4955121;28;20432;-77
2021/01/22 12:28:18;;;;;;;1.75;0.90;;;11.20;99.90;;;;;;4955336;28;20380;-77
2021/01/22 12:30:44;;;;;;;4.38;1.00;;;11.40;99.90;;;;;;4955028;28;20031;-77
2021/01/22 12:33:10;;;;;;;1.73;0.93;;;11.80;99.90;;;;;;4957045;29;20186;-77
2021/01/22 12:35:36;;;;;;;2.03;1.00;;;11.60;99.90;;;;;;4957384;29;20122;-77
2021/01/22 12:38:02;;;;;;;2.15;1.10;;;11.50;99.90;;;;;;4958423;28;20419;-77
2021/01/22 12:40:28;;;;;;;1.15;0.73;;;11.30;99.90;;;;;;4957287;29;20023;-77
2021/01/22 12:42:54;;;;;;;5.03;0.90;;;11.20;99.90;;;;;;4958505;28;20364;-78
2021/01/22 12:45:24;;;;;;;2.63;1.00;;;11.10;99.90;;;;;;4957227;29;20040;-77
2021/01/22 12:47:51;;;;;;;1.48;0.90;;;10.80;99.90;;;;;;4957320;29;20047;-77
2021/01/22 12:50:17;;;;;;;2.53;0.80;;;10.90;99.90;;;;;;4957090;29;20049;-77
2021/01/22 12:52:43;;;;;;;3.45;1.05;;;10.80;99.90;;;;;;4958362;28;20475;-77
2021/01/22 12:55:10;;;;;;;1.35;0.80;;;10.90;99.90;;;;;;4958305;28;20023;-77
2021/01/22 12:57:36;;;;;;;1.27;0.73;;;10.90;99.90;;;;;;4956892;29;20047;-77
2021/01/22 13:00:04;;;;;;;1.52;0.90;;;10.90;99.90;;;;;;4958188;28;20031;-77